sensor_id;sensor_type;location;lat;lon;timestamp;P1;durP1;ratioP1;P2;durP2;ratioP2
73825;SDS011;62155;55.080;73.208;2022-08-19T00:01:08;0.00;;;0.00;;
73825;SDS011;62155;55.080;73.208;2022-08-19T00:03:45;0.00;;;0.00;;
73825;SDS011;62155;55.080;73.208;2022-08-19T00:06:23;0.00;;;0.00;;
73825;SDS011;62155;55.080;73.208;2022-08-19T00:08:58;0.00;;;0.00;;
73825;SDS011;62155;55.080;73.208;2022-08-19T00:11:33;0.00;;;0.00;;
73825;SDS011;62155;55.080;73.208;2022-08-19T11:50:27;1.33;;;0.00;;
73825;SDS011;62155;55.080;73.208;2022-08-19T11:52:55;0.00;;;0.00;;
73825;SDS011;62155;55.080;73.208;2022-08-19T11:55:26;0.00;;;0.00;;
73825;SDS011;62155;55.080;73.208;2022-08-19T11:57:53;0.00;;;0.00;;
73825;SDS011;62155;55.080;73.208;2022-08-19T12:00:19;0.00;;;0.00;;
73825;SDS011;62155;55.080;73.208;2022-08-19T12:02:46;1.00;;;0.00;;
73825;SDS011;62155;55.080;73.208;2022-08-19T12:05:13;1.00;;;0.00;;
73825;SDS011;62155;55.080;73.208;2022-08-19T12:07:40;0.00;;;0.00;;
73825;SDS011;62155;55.080;73.208;2022-08-19T12:10:07;0.00;;;0.00;;
73825;SDS011;62155;55.080;73.208;2022-08-19T12:12:35;0.00;;;0.00;;
73825;SDS011;62155;55.080;73.208;2022-08-19T12:15:02;0.00;;;0.00;;
73825;SDS011;62155;55.080;73.208;2022-08-19T12:17:29;0.00;;;0.00;;
73825;SDS011;62155;55.080;73.208;2022-08-19T12:19:57;0.00;;;0.00;;
73825;SDS011;62155;55.080;73.208;2022-08-19T12:22:24;1.00;;;1.00;;
73825;SDS011;62155;55.080;73.208;2022-08-19T12:25:07;1.00;;;1.00;;
73825;SDS011;62155;55.080;73.208;2022-08-19T12:27:34;2.00;;;2.00;;
73825;SDS011;62155;55.080;73.208;2022-08-19T12:30:02;1.33;;;1.33;;
73825;SDS011;62155;55.080;73.208;2022-08-19T12:32:28;2.00;;;2.00;;
73825;SDS011;62155;55.080;73.208;2022-08-19T12:34:55;2.67;;;2.33;;
73825;SDS011;62155;55.080;73.208;2022-08-19T12:37:23;5.00;;;4.00;;
73825;SDS011;62155;55.080;73.208;2022-08-19T12:39:56;3.00;;;3.00;;
73825;SDS011;62155;55.080;73.208;2022-08-19T12:42:23;1.00;;;1.00;;
73825;SDS011;62155;55.080;73.208;2022-08-19T12:44:50;1.00;;;1.00;;
73825;SDS011;62155;55.080;73.208;2022-08-19T12:47:19;0.00;;;0.00;;
73825;SDS011;62155;55.080;73.208;2022-08-19T12:49:49;2.00;;;2.00;;
73825;SDS011;62155;55.080;73.208;2022-08-19T12:52:24;2.00;;;2.00;;
73825;SDS011;62155;55.080;73.208;2022-08-19T12:54:55;1.00;;;1.00;;
73825;SDS011;62155;55.080;73.208;2022-08-19T12:57:23;1.75;;;1.75;;
73825;SDS011;62155;55.080;73.208;2022-08-19T12:59:52;2.67;;;2.67;;
73825;SDS011;62155;55.080;73.208;2022-08-19T13:02:30;2.00;;;2.00;;
73825;SDS011;62155;55.080;73.208;2022-08-19T13:04:58;1.00;;;1.00;;
73825;SDS011;62155;55.080;73.208;2022-08-19T13:07:32;2.25;;;2.25;;
73825;SDS011;62155;55.080;73.208;2022-08-19T13:10:00;1.00;;;1.00;;
73825;SDS011;62155;55.080;73.208;2022-08-19T13:12:29;2.00;;;1.00;;
73825;SDS011;62155;55.080;73.208;2022-08-19T13:14:56;2.00;;;0.00;;
73825;SDS011;62155;55.080;73.208;2022-08-19T13:17:23;3.00;;;2.00;;
73825;SDS011;62155;55.080;73.208;2022-08-19T13:19:50;2.00;;;1.75;;
73825;SDS011;62155;55.080;73.208;2022-08-19T13:22:17;2.00;;;1.00;;
73825;SDS011;62155;55.080;73.208;2022-08-19T13:24:53;3.00;;;2.33;;
73825;SDS011;62155;55.080;73.208;2022-08-19T13:27:21;4.00;;;4.00;;
73825;SDS011;62155;55.080;73.208;2022-08-19T13:29:51;3.00;;;2.33;;
73825;SDS011;62155;55.080;73.208;2022-08-19T13:32:36;1.25;;;1.25;;
73825;SDS011;62155;55.080;73.208;2022-08-19T13:35:25;1.00;;;1.00;;
73825;SDS011;62155;55.080;73.208;2022-08-19T13:37:53;1.00;;;1.00;;
73825;SDS011;62155;55.080;73.208;2022-08-19T13:40:23;1.00;;;1.00;;
73825;SDS011;62155;55.080;73.208;2022-08-19T13:42:59;1.00;;;1.00;;
73825;SDS011;62155;55.080;73.208;2022-08-19T13:45:32;2.50;;;2.25;;
73825;SDS011;62155;55.080;73.208;2022-08-19T13:48:01;2.00;;;1.75;;
73825;SDS011;62155;55.080;73.208;2022-08-19T13:50:44;1.00;;;1.00;;
73825;SDS011;62155;55.080;73.208;2022-08-19T13:53:13;2.25;;;2.25;;
73825;SDS011;62155;55.080;73.208;2022-08-19T13:55:50;0.00;;;0.00;;
73825;SDS011;62155;55.080;73.208;2022-08-19T13:58:26;1.00;;;0.00;;
73825;SDS011;62155;55.080;73.208;2022-08-19T14:00:58;2.67;;;2.00;;
73825;SDS011;62155;55.080;73.208;2022-08-19T14:03:33;1.00;;;1.00;;
73825;SDS011;62155;55.080;73.208;2022-08-19T14:05:59;0.00;;;0.00;;
73825;SDS011;62155;55.080;73.208;2022-08-19T14:08:29;0.00;;;0.00;;
73825;SDS011;62155;55.080;73.208;2022-08-19T14:10:58;0.00;;;0.00;;
73825;SDS011;62155;55.080;73.208;2022-08-19T14:13:25;1.00;;;0.75;;
73825;SDS011;62155;55.080;73.208;2022-08-19T14:15:53;2.00;;;1.00;;
73825;SDS011;62155;55.080;73.208;2022-08-19T14:18:30;1.00;;;1.00;;
73825;SDS011;62155;55.080;73.208;2022-08-19T14:20:56;0.00;;;0.00;;
73825;SDS011;62155;55.080;73.208;2022-08-19T14:23:23;0.00;;;0.00;;
73825;SDS011;62155;55.080;73.208;2022-08-19T14:25:51;1.25;;;1.00;;
73825;SDS011;62155;55.080;73.208;2022-08-19T14:28:31;3.00;;;1.75;;
73825;SDS011;62155;55.080;73.208;2022-08-19T14:31:10;2.00;;;2.00;;
73825;SDS011;62155;55.080;73.208;2022-08-19T14:33:39;2.25;;;2.25;;
73825;SDS011;62155;55.080;73.208;2022-08-19T14:36:06;3.00;;;2.00;;
73825;SDS011;62155;55.080;73.208;2022-08-19T14:38:35;3.00;;;3.00;;
73825;SDS011;62155;55.080;73.208;2022-08-19T14:41:11;5.00;;;5.00;;
73825;SDS011;62155;55.080;73.208;2022-08-19T14:43:39;3.00;;;3.00;;
73825;SDS011;62155;55.080;73.208;2022-08-19T14:46:06;3.00;;;3.00;;
73825;SDS011;62155;55.080;73.208;2022-08-19T14:48:34;5.50;;;5.00;;
73825;SDS011;62155;55.080;73.208;2022-08-19T14:51:05;3.00;;;3.00;;
73825;SDS011;62155;55.080;73.208;2022-08-19T14:53:36;3.00;;;3.00;;
73825;SDS011;62155;55.080;73.208;2022-08-19T14:56:13;5.00;;;5.00;;
73825;SDS011;62155;55.080;73.208;2022-08-19T14:58:40;4.00;;;3.00;;
73825;SDS011;62155;55.080;73.208;2022-08-19T15:01:07;4.00;;;2.00;;
73825;SDS011;62155;55.080;73.208;2022-08-19T15:03:34;2.00;;;1.00;;
73825;SDS011;62155;55.080;73.208;2022-08-19T15:06:01;2.00;;;1.00;;
73825;SDS011;62155;55.080;73.208;2022-08-19T15:08:29;9.25;;;7.75;;
73825;SDS011;62155;55.080;73.208;2022-08-19T15:10:56;5.00;;;5.00;;
73825;SDS011;62155;55.080;73.208;2022-08-19T15:13:25;2.00;;;2.00;;
73825;SDS011;62155;55.080;73.208;2022-08-19T15:15:53;2.33;;;2.00;;
73825;SDS011;62155;55.080;73.208;2022-08-19T15:18:20;3.00;;;2.50;;
73825;SDS011;62155;55.080;73.208;2022-08-19T15:20:52;2.50;;;2.50;;
73825;SDS011;62155;55.080;73.208;2022-08-19T15:23:19;4.00;;;3.00;;
73825;SDS011;62155;55.080;73.208;2022-08-19T15:25:48;3.00;;;3.00;;
73825;SDS011;62155;55.080;73.208;2022-08-19T15:28:18;3.00;;;2.50;;
73825;SDS011;62155;55.080;73.208;2022-08-19T15:30:45;3.00;;;2.25;;
73825;SDS011;62155;55.080;73.208;2022-08-19T15:33:11;5.00;;;4.00;;
73825;SDS011;62155;55.080;73.208;2022-08-19T15:35:50;5.00;;;4.67;;
73825;SDS011;62155;55.080;73.208;2022-08-19T15:38:18;3.50;;;3.50;;
73825;SDS011;62155;55.080;73.208;2022-08-19T15:40:49;4.00;;;3.00;;
73825;SDS011;62155;55.080;73.208;2022-08-19T15:43:16;5.00;;;4.00;;
73825;SDS011;62155;55.080;73.208;2022-08-19T15:45:44;4.00;;;3.00;;
73825;SDS011;62155;55.080;73.208;2022-08-19T15:48:11;5.00;;;4.00;;
73825;SDS011;62155;55.080;73.208;2022-08-19T15:50:38;3.33;;;3.33;;
73825;SDS011;62155;55.080;73.208;2022-08-19T15:53:06;6.00;;;4.00;;
73825;SDS011;62155;55.080;73.208;2022-08-19T15:55:35;5.67;;;4.00;;
73825;SDS011;62155;55.080;73.208;2022-08-19T15:58:09;3.50;;;3.25;;
73825;SDS011;62155;55.080;73.208;2022-08-19T16:00:55;5.00;;;5.00;;
73825;SDS011;62155;55.080;73.208;2022-08-19T16:03:41;5.00;;;4.00;;
73825;SDS011;62155;55.080;73.208;2022-08-19T16:06:32;5.00;;;4.00;;
73825;SDS011;62155;55.080;73.208;2022-08-19T16:09:00;6.75;;;5.75;;
73825;SDS011;62155;55.080;73.208;2022-08-19T16:11:31;7.00;;;6.00;;
